Time;durP1;ratioP1;P1;durP2;ratioP2;P2;SDS_P1;SDS_P2;PMS_P1;PMS_P2;Temp;Humidity;BMP_temperature;BMP_pressure;BME280_temperature;BME280_humidity;BME280_pressure;Samples;Min_cycle;Max_cycle;Signal;HPM_P1;HPM_P2
2021/09/23 00:00:58;;;;;;;;;0.00;0.00;;;;;27.01;70.76;98766.75;6126262;23;8836;-75
2021/09/23 00:06:00;;;;;;;;;0.00;0.00;;;;;26.96;70.71;98765.94;6126180;23;9546;-76
2021/09/23 00:08:28;;;;;;;;;0.00;0.00;;;;;26.93;70.88;98763.97;6128057;23;8814;-75
2021/09/23 00:10:57;;;;;;;;;0.00;0.00;;;;;26.96;71.03;98765.94;6126141;23;8810;-75
2021/09/23 00:13:27;;;;;;;;;0.00;0.00;;;;;26.96;70.73;98771.34;6126662;23;8793;-75
2021/09/23 00:15:56;;;;;;;;;0.00;0.00;;;;;26.97;70.40;98777.56;6126594;23;8812;-76
2021/09/23 00:18:29;;;;;;;;;0.00;0.00;;;;;26.98;70.20;98781.81;6126013;23;8797;-75
2021/09/23 00:20:58;;;;;;;;;0.00;0.00;;;;;26.98;70.41;98789.94;6100479;23;8807;-75
2021/09/23 00:23:27;;;;;;;;;0.00;0.00;;;;;26.97;70.34;98793.78;6125945;23;9495;-75
2021/09/23 00:25:56;;;;;;;;;0.00;0.00;;;;;26.94;70.52;98799.91;6125991;23;8805;-75
2021/09/23 00:28:24;;;;;;;;;0.00;0.00;;;;;26.96;70.59;98801.13;6126611;23;8813;-77
2021/09/23 00:30:53;;;;;;;;;0.00;0.00;;;;;26.95;70.79;98806.88;6125916;23;8812;-76
2021/09/23 00:33:21;;;;;;;;;0.00;0.00;;;;;26.96;71.15;98806.56;6126273;23;8884;-76
2021/09/23 00:35:50;;;;;;;;;0.00;0.00;;;;;26.99;71.20;98810.44;6125920;23;8802;-75
2021/09/23 00:38:19;;;;;;;;;0.00;0.00;;;;;27.01;71.02;98818.97;6125894;23;8821;-75
2021/09/23 00:40:48;;;;;;;;;0.00;0.00;;;;;27.01;71.21;98813.53;6125787;23;8809;-76
2021/09/23 00:43:16;;;;;;;;;0.00;0.00;;;;;27.02;71.03;98812.41;6126537;23;9527;-76
2021/09/23 00:45:45;;;;;;;;;0.20;0.20;;;;;27.09;71.03;98826.00;6125805;23;8782;-76
2021/09/23 00:48:13;;;;;;;;;0.00;0.00;;;;;27.13;71.10;98828.72;6125801;23;8920;-76
2021/09/23 00:50:43;;;;;;;;;0.00;0.00;;;;;27.14;71.17;98831.06;6126538;23;8801;-75
2021/09/23 00:53:14;;;;;;;;;0.00;0.00;;;;;27.02;70.99;98809.69;6105676;23;8844;-78
2021/09/23 00:55:43;;;;;;;;;0.20;0.20;;;;;27.20;70.85;98847.75;6155179;23;8891;-76
2021/09/23 00:58:12;;;;;;;;;0.00;0.00;;;;;27.21;70.69;98852.00;6154577;23;8816;-76
2021/09/23 01:00:40;;;;;;;;;0.00;0.00;;;;;27.24;70.80;98848.56;6154907;23;8824;-75
2021/09/23 01:03:11;;;;;;;;;0.00;0.00;;;;;27.26;70.25;98855.16;6154867;23;8836;-76
2021/09/23 01:05:41;;;;;;;;;0.00;0.00;;;;;27.25;70.56;98856.31;6154856;23;8942;-75
2021/09/23 01:08:09;;;;;;;;;0.00;0.00;;;;;27.32;70.73;98868.31;6155166;23;8816;-76
2021/09/23 01:10:38;;;;;;;;;0.00;0.00;;;;;27.35;70.71;98872.97;6154611;23;8875;-78
2021/09/23 01:13:06;;;;;;;;;1.00;1.00;;;;;27.36;70.80;98878.03;6154454;23;8906;-76
2021/09/23 01:15:35;;;;;;;;;0.00;0.00;;;;;27.39;71.03;98873.78;6154895;23;8832;-79
2021/09/23 01:18:04;;;;;;;;;0.00;0.00;;;;;27.44;70.75;98876.16;6153896;23;8838;-78
2021/09/23 01:20:33;;;;;;;;;0.00;0.00;;;;;27.48;70.44;98879.66;6154261;23;8828;-80
2021/09/23 01:23:02;;;;;;;;;0.00;0.00;;;;;27.48;70.65;98863.41;6153938;23;9656;-79
2021/09/23 01:25:30;;;;;;;;;0.00;0.00;;;;;27.49;70.61;98856.84;6154151;23;8832;-79
2021/09/23 01:27:58;;;;;;;;;0.00;0.00;;;;;27.58;70.98;98865.41;6154817;23;8875;-83
2021/09/23 01:30:27;;;;;;;;;0.00;0.00;;;;;27.60;70.55;98865.84;6159109;23;8883;-80
2021/09/23 01:32:56;;;;;;;;;0.00;0.00;;;;;27.68;70.48;98863.97;6165597;23;8835;-79
2021/09/23 01:35:24;;;;;;;;;0.00;0.00;;;;;27.74;70.30;98865.94;6168307;23;8925;-79
2021/09/23 01:37:53;;;;;;;;;0.00;0.00;;;;;27.79;70.02;98865.59;6172788;23;8839;-79
2021/09/23 01:40:21;;;;;;;;;0.00;0.00;;;;;27.84;70.10;98864.44;6173294;23;9545;-79
2021/09/23 01:42:50;;;;;;;;;0.00;0.00;;;;;27.89;69.84;98864.88;6170975;23;8816;-79
2021/09/23 01:45:19;;;;;;;;;0.00;0.00;;;;;27.91;69.82;98854.44;6172277;23;8901;-79
2021/09/23 01:47:47;;;;;;;;;0.50;0.50;;;;;27.93;69.71;98854.81;6172661;23;8819;-79
2021/09/23 01:50:16;;;;;;;;;0.75;0.75;;;;;27.97;69.90;98860.25;6171751;23;8816;-79
2021/09/23 01:52:45;;;;;;;;;0.40;0.40;;;;;28.00;69.94;98864.94;6172035;23;9571;-78
2021/09/23 01:55:13;;;;;;;;;0.75;0.75;;;;;28.03;69.89;98868.81;6170833;23;8820;-79
2021/09/23 01:57:42;;;;;;;;;0.40;0.40;;;;;28.04;69.91;98857.59;6172443;23;8828;-79
2021/09/23 02:00:11;;;;;;;;;0.00;0.00;;;;;28.10;70.32;98866.16;6170996;23;8888;-79
2021/09/23 02:02:40;;;;;;;;;0.40;0.40;;;;;28.14;69.75;98875.84;6169722;23;8808;-79
2021/09/23 02:05:10;;;;;;;;;0.00;0.00;;;;;28.16;69.55;98870.81;6175459;23;8876;-79
2021/09/23 02:07:38;;;;;;;;;0.60;0.60;;;;;28.23;69.51;98876.31;6170570;23;8840;-79
2021/09/23 02:10:08;;;;;;;;;1.00;1.00;;;;;28.28;69.01;98872.44;6169460;23;8883;-79
2021/09/23 02:12:36;;;;;;;;;0.20;0.20;;;;;28.34;68.91;98881.78;6174135;23;8818;-79
2021/09/23 02:15:08;;;;;;;;;0.00;0.00;;;;;28.41;68.92;98881.81;6175939;23;8820;-79
2021/09/23 02:17:36;;;;;;;;;0.00;0.00;;;;;28.44;69.04;98877.56;6171327;23;8827;-79
2021/09/23 02:20:06;;;;;;;;;0.80;0.80;;;;;28.53;68.87;98883.41;6173993;23;8812;-79
2021/09/23 02:22:34;;;;;;;;;0.00;0.00;;;;;28.63;68.70;98888.06;6170888;23;8820;-78
2021/09/23 02:25:03;;;;;;;;;0.00;0.00;;;;;28.71;68.61;98883.41;6173986;23;8863;-79
2021/09/23 02:27:32;;;;;;;;;0.20;0.20;;;;;28.82;68.19;98886.94;6173153;23;8825;-79
2021/09/23 02:30:03;;;;;;;;;0.00;0.00;;;;;28.90;68.08;98881.16;6171501;23;8812;-79
2021/09/23 02:32:44;;;;;;;;;1.00;1.00;;;;;29.00;67.89;98898.66;6170692;23;8809;-79
2021/09/23 02:35:12;;;;;;;;;0.80;0.80;;;;;29.07;67.09;98893.22;6169182;23;8808;-79
2021/09/23 02:37:41;;;;;;;;;1.00;1.00;;;;;29.12;67.04;98898.28;6172821;23;8824;-79
2021/09/23 02:40:11;;;;;;;;;1.20;1.20;;;;;29.13;66.97;98896.34;6172590;23;8923;-79
2021/09/23 02:42:40;;;;;;;;;0.80;0.80;;;;;29.10;65.92;98888.97;6172153;23;8832;-79
2021/09/23 02:45:10;;;;;;;;;0.80;0.80;;;;;29.07;66.85;98892.44;6171847;23;8824;-79
2021/09/23 02:47:39;;;;;;;;;1.00;1.00;;;;;29.07;66.51;98893.22;6175510;23;8829;-79
2021/09/23 02:50:08;;;;;;;;;1.40;1.40;;;;;29.03;66.61;98889.72;6172134;23;8922;-79
2021/09/23 02:52:37;;;;;;;;;1.00;1.00;;;;;29.09;66.70;98900.97;6191924;23;8808;-80
2021/09/23 02:55:07;;;;;;;;;1.80;1.80;;;;;29.04;66.37;98895.94;6172627;23;8823;-79
2021/09/23 02:57:35;;;;;;;;;0.80;0.80;;;;;29.03;66.31;98897.09;6167435;23;8816;-79
2021/09/23 03:00:05;;;;;;;;;0.80;0.80;;;;;29.00;66.03;98895.94;6167493;23;8816;-79
2021/09/23 03:02:33;;;;;;;;;1.00;1.00;;;;;28.97;66.50;98891.28;6171149;23;8910;-79
2021/09/23 03:05:03;;;;;;;;;1.20;1.20;;;;;29.00;66.52;98895.94;6173588;23;8816;-79
2021/09/23 03:07:31;;;;;;;;;0.80;0.80;;;;;29.02;66.89;98898.25;6176418;23;8817;-79
2021/09/23 03:10:00;;;;;;;;;0.80;0.80;;;;;29.04;66.16;98902.13;6175354;23;8823;-79
2021/09/23 03:12:28;;;;;;;;;0.80;0.80;;;;;29.04;66.50;98887.78;6174017;23;8845;-79
2021/09/23 03:14:57;;;;;;;;;0.20;0.20;;;;;29.09;66.26;98893.63;6174143;23;8839;-79
2021/09/23 03:17:26;;;;;;;;;0.00;0.00;;;;;29.09;66.20;98885.47;6173516;23;8820;-79
2021/09/23 03:19:55;;;;;;;;;0.00;0.00;;;;;29.11;66.57;98883.13;6171312;23;8808;-79
2021/09/23 03:22:24;;;;;;;;;0.80;0.80;;;;;29.18;66.68;98885.09;6174127;23;8891;-79
2021/09/23 03:24:52;;;;;;;;;1.40;1.40;;;;;29.26;66.58;98889.34;6174056;23;8836;-79
2021/09/23 03:27:22;;;;;;;;;1.00;1.00;;;;;29.29;66.67;98891.31;6171282;23;8816;-79
2021/09/23 03:29:50;;;;;;;;;2.60;2.60;;;;;29.27;65.75;98888.19;6172263;23;8856;-80
2021/09/23 03:32:19;;;;;;;;;1.80;1.80;;;;;29.27;66.31;98888.19;6171995;23;8844;-79
2021/09/23 03:34:48;;;;;;;;;1.00;1.00;;;;;29.27;65.86;98890.13;6170098;23;8823;-79
2021/09/23 03:37:17;;;;;;;;;0.80;0.80;;;;;29.27;65.64;98884.69;6173667;23;8910;-79
2021/09/23 03:39:45;;;;;;;;;0.80;0.80;;;;;29.30;65.86;98884.69;6171680;23;8895;-79
2021/09/23 03:42:26;;;;;;;;;1.00;1.00;;;;;29.33;65.38;98883.94;6173274;23;8816;-79
2021/09/23 03:45:05;;;;;;;;;0.80;0.80;;;;;29.35;66.04;98888.97;6174005;23;8835;-79
2021/09/23 03:47:34;;;;;;;;;1.00;1.00;;;;;29.34;65.61;98876.56;6174791;23;8918;-79
2021/09/23 03:50:04;;;;;;;;;0.40;0.40;;;;;29.39;66.39;98884.31;6173735;23;8915;-79
2021/09/23 03:52:33;;;;;;;;;0.40;0.40;;;;;29.39;66.02;98878.88;6174953;23;8823;-79
2021/09/23 03:55:02;;;;;;;;;1.40;1.40;;;;;29.41;66.47;98884.69;6177026;23;8816;-79
2021/09/23 03:57:32;;;;;;;;;0.80;0.80;;;;;29.41;66.48;98882.75;6174072;23;8844;-79
2021/09/23 04:00:01;;;;;;;;;1.00;1.00;;;;;29.43;66.43;98885.91;6175509;23;8844;-79
2021/09/23 04:02:29;;;;;;;;;0.80;0.80;;;;;29.45;65.84;98878.13;6174284;23;9538;-79
2021/09/23 04:05:00;;;;;;;;;0.80;0.80;;;;;29.48;65.94;98879.28;6177353;23;8912;-79
2021/09/23 04:07:29;;;;;;;;;1.00;1.00;;;;;29.45;65.99;98875.41;6176189;23;8840;-79
2021/09/23 04:10:07;;;;;;;;;0.80;0.80;;;;;29.42;66.17;98862.59;6175556;23;8806;-79
2021/09/23 04:12:36;;;;;;;;;0.20;0.20;;;;;29.41;65.89;98861.03;6174348;23;9536;-79
2021/09/23 04:15:07;;;;;;;;;1.00;1.00;;;;;29.44;66.12;98859.50;6175421;23;8831;-79
2021/09/23 04:17:37;;;;;;;;;0.20;0.20;;;;;29.44;65.65;98859.50;6175982;23;8899;-79
2021/09/23 04:20:07;;;;;;;;;0.00;0.00;;;;;29.42;65.24;98848.25;6176623;23;8816;-79
2021/09/23 04:22:36;;;;;;;;;0.00;0.00;;;;;29.42;64.69;98840.88;6176988;23;8800;-79
2021/09/23 04:25:05;;;;;;;;;0.60;0.60;;;;;29.46;64.11;98838.91;6174905;23;8824;-78
2021/09/23 04:27:41;;;;;;;;;1.00;1.00;;;;;29.49;64.84;98837.34;6179358;23;8809;-79
2021/09/23 04:30:10;;;;;;;;;0.00;0.00;;;;;29.52;64.95;98833.84;6178006;23;8811;-79
2021/09/23 04:32:39;;;;;;;;;0.40;0.40;;;;;29.55;65.13;98835.78;6177804;23;8827;-79
2021/09/23 04:35:08;;;;;;;;;0.00;0.00;;;;;29.57;65.04;98830.75;6169020;23;8832;-79
2021/09/23 04:37:36;;;;;;;;;0.40;0.40;;;;;29.57;64.34;98824.53;6176346;23;8830;-79
2021/09/23 04:40:06;;;;;;;;;1.00;1.00;;;;;29.56;63.33;98820.25;6176704;23;8843;-79
2021/09/23 04:42:37;;;;;;;;;1.00;1.00;;;;;29.58;63.15;98820.66;6177430;23;8820;-78
2021/09/23 04:45:05;;;;;;;;;0.80;0.80;;;;;29.59;64.33;98825.69;6177245;23;8785;-79
2021/09/23 04:47:34;;;;;;;;;0.80;0.80;;;;;29.59;64.04;98808.59;6177506;23;8815;-79
2021/09/23 04:50:04;;;;;;;;;0.80;0.80;;;;;29.58;64.71;98802.41;6177388;23;8815;-79
2021/09/23 04:52:33;;;;;;;;;0.40;0.40;;;;;29.66;64.25;98816.75;6177804;23;8914;-79
2021/09/23 04:55:01;;;;;;;;;0.00;0.00;;;;;29.69;64.00;98805.88;6177463;23;8866;-79
2021/09/23 04:57:33;;;;;;;;;0.40;0.40;;;;;29.73;63.73;98803.13;6176661;23;9569;-79
2021/09/23 05:00:04;;;;;;;;;0.80;0.80;;;;;29.77;64.30;98801.97;6177652;23;8839;-79
2021/09/23 05:02:33;;;;;;;;;0.80;0.80;;;;;29.83;64.36;98797.66;6177316;23;8793;-79
2021/09/23 05:05:02;;;;;;;;;0.00;0.00;;;;;29.90;64.08;98793.38;6176915;23;8876;-79
2021/09/23 05:07:31;;;;;;;;;1.00;1.00;;;;;29.95;63.61;98788.28;6176400;23;8818;-80
2021/09/23 05:09:59;;;;;;;;;0.80;0.80;;;;;29.97;64.14;98785.94;6174332;23;8819;-79
2021/09/23 05:12:40;;;;;;;;;0.80;0.80;;;;;29.99;63.32;98785.53;6173039;23;8824;-79
2021/09/23 05:15:12;;;;;;;;;0.80;0.80;;;;;30.00;63.52;98785.16;6167144;23;8831;-78
2021/09/23 05:17:41;;;;;;;;;1.80;0.80;;;;;30.03;63.58;98778.16;6171416;23;8934;-78
2021/09/23 05:20:09;;;;;;;;;2.40;2.40;;;;;30.04;63.55;98780.50;6158802;23;8827;-78
2021/09/23 05:22:38;;;;;;;;;1.00;1.00;;;;;30.09;63.72;98766.47;6151170;23;9557;-78
2021/09/23 05:25:11;;;;;;;;;1.00;1.00;;;;;30.13;64.15;98755.56;6152630;23;8813;-77
2021/09/23 05:27:40;;;;;;;;;0.80;0.80;;;;;30.18;64.24;98764.09;6159524;23;8847;-79
2021/09/23 05:30:12;;;;;;;;;1.00;1.00;;;;;30.21;64.22;98759.03;6174802;23;8875;-79
2021/09/23 05:32:41;;;;;;;;;0.60;0.60;;;;;30.19;64.02;98762.91;6175199;23;8840;-79
2021/09/23 05:35:12;;;;;;;;;1.80;1.80;;;;;30.15;64.27;98767.59;6174266;23;8838;-79
2021/09/23 05:37:41;;;;;;;;;0.80;0.80;;;;;30.08;64.73;98761.44;6171990;23;8843;-79
2021/09/23 05:40:10;;;;;;;;;0.00;0.00;;;;;30.01;64.83;98769.63;6161904;23;8811;-79
2021/09/23 05:42:40;;;;;;;;;0.00;0.00;;;;;29.91;64.76;98773.91;6160297;23;8812;-80
2021/09/23 05:45:11;;;;;;;;;0.00;0.00;;;;;29.83;65.14;98769.69;6161700;23;8864;-79
2021/09/23 05:47:41;;;;;;;;;0.60;0.60;;;;;29.73;65.23;98770.50;6161038;23;8816;-80
2021/09/23 05:50:12;;;;;;;;;0.00;0.00;;;;;29.62;66.08;98756.94;6165875;23;8856;-80
2021/09/23 05:52:41;;;;;;;;;0.40;0.40;;;;;29.54;65.57;98758.91;6165747;23;8809;-78
2021/09/23 05:55:10;;;;;;;;;0.00;0.00;;;;;29.43;65.71;98765.53;6159339;23;8824;-79
2021/09/23 05:57:39;;;;;;;;;0.00;0.00;;;;;29.27;65.56;98765.94;6159149;23;8820;-79
2021/09/23 06:00:13;;;;;;;;;0.60;0.60;;;;;29.15;66.22;98767.13;6157086;23;8800;-80
2021/09/23 06:02:43;;;;;;;;;0.00;0.00;;;;;29.05;65.84;98754.31;6154327;23;8882;-83
2021/09/23 06:05:14;;;;;;;;;0.00;0.00;;;;;28.96;66.03;98759.38;6154188;23;8824;-83
2021/09/23 06:07:43;;;;;;;;;0.00;0.00;;;;;28.84;66.03;98751.59;6153946;23;8820;-81
2021/09/23 06:10:13;;;;;;;;;0.00;0.00;;;;;28.69;66.17;98742.66;6156468;23;8816;-81
2021/09/23 06:12:41;;;;;;;;;0.00;0.00;;;;;28.51;66.50;98723.69;6154088;23;8911;-82
2021/09/23 06:15:11;;;;;;;;;0.00;0.00;;;;;28.50;66.78;98726.78;6153879;23;8839;-85
2021/09/23 06:17:45;;;;;;;;;0.00;0.00;;;;;28.43;66.93;98721.34;6155429;23;8839;-84
2021/09/23 06:20:15;;;;;;;;;0.00;0.00;;;;;28.40;67.03;98720.19;6153655;23;8895;-82
2021/09/23 06:22:43;;;;;;;;;0.00;0.00;;;;;28.40;67.06;98713.97;6155952;23;8812;-79
2021/09/23 06:25:13;;;;;;;;;0.00;0.00;;;;;28.31;67.04;98695.38;6155340;23;9565;-79
2021/09/23 06:27:41;;;;;;;;;0.00;0.00;;;;;28.32;66.94;98696.91;6154374;23;8827;-78
2021/09/23 06:30:12;;;;;;;;;0.00;0.00;;;;;28.29;67.32;98696.91;6156821;23;8850;-80
2021/09/23 06:32:41;;;;;;;;;0.00;0.00;;;;;28.27;66.86;98681.03;6155367;23;8836;-80
2021/09/23 06:35:10;;;;;;;;;0.00;0.00;;;;;28.25;67.42;98683.34;6156769;23;8903;-81
2021/09/23 06:37:46;;;;;;;;;0.00;0.00;;;;;28.30;67.90;98677.53;6153450;23;9557;-83
2021/09/23 06:40:16;;;;;;;;;0.00;0.00;;;;;28.24;66.78;98673.66;6154203;23;8855;-79
2021/09/23 06:42:44;;;;;;;;;0.00;0.00;;;;;28.29;66.70;98684.13;6155008;23;8910;-82
2021/09/23 06:45:14;;;;;;;;;0.00;0.00;;;;;28.26;67.49;98679.47;6155087;23;8840;-82
2021/09/23 06:47:44;;;;;;;;;0.00;0.00;;;;;28.25;68.16;98675.19;6153985;23;8816;-80
2021/09/23 06:50:14;;;;;;;;;0.00;0.00;;;;;28.31;67.94;98670.94;6155145;23;8817;-81
2021/09/23 06:52:42;;;;;;;;;0.00;0.00;;;;;28.38;67.97;98672.88;6154893;23;8886;-79
2021/09/23 06:55:11;;;;;;;;;0.00;0.00;;;;;28.42;67.72;98651.97;6157629;23;8844;-79
2021/09/23 06:57:40;;;;;;;;;0.00;0.00;;;;;28.51;67.69;98650.41;6157006;23;8856;-79
2021/09/23 07:00:09;;;;;;;;;0.00;0.00;;;;;28.62;67.65;98646.88;6159805;23;8812;-79
2021/09/23 07:02:38;;;;;;;;;0.00;0.00;;;;;28.66;67.46;98631.38;6155522;23;8816;-77
2021/09/23 07:05:07;;;;;;;;;0.00;0.00;;;;;28.81;67.67;98627.47;6157936;23;8918;-78
2021/09/23 07:07:36;;;;;;;;;0.00;0.00;;;;;28.89;67.24;98618.19;6157782;23;8854;-78
2021/09/23 07:10:05;;;;;;;;;0.00;0.00;;;;;28.96;67.32;98615.44;6157686;23;8816;-78
2021/09/23 07:12:34;;;;;;;;;0.00;0.00;;;;;29.05;67.01;98615.81;6157984;23;8986;-79
2021/09/23 07:15:04;;;;;;;;;0.00;0.00;;;;;29.12;67.22;98613.06;6158796;23;8904;-78
2021/09/23 07:17:33;;;;;;;;;0.00;0.00;;;;;29.18;66.90;98597.91;6159597;23;8836;-78
2021/09/23 07:20:02;;;;;;;;;0.00;0.00;;;;;29.28;67.28;98598.25;6159497;23;8838;-78
2021/09/23 07:22:31;;;;;;;;;0.00;0.00;;;;;29.35;66.04;98595.50;6158706;23;8848;-78
2021/09/23 07:24:59;;;;;;;;;0.00;0.00;;;;;29.40;65.05;98578.81;6159249;23;8890;-77
2021/09/23 07:27:28;;;;;;;;;0.00;0.00;;;;;29.46;65.39;98575.31;6160102;23;8816;-78
2021/09/23 07:29:56;;;;;;;;;0.00;0.00;;;;;29.48;64.92;98564.81;6158843;23;8820;-79
2021/09/23 07:32:25;;;;;;;;;0.00;0.00;;;;;29.52;65.47;98560.13;6159603;23;8809;-79
2021/09/23 07:34:54;;;;;;;;;0.00;0.00;;;;;29.56;65.30;98543.78;6158808;23;8804;-78
2021/09/23 07:37:22;;;;;;;;;0.00;0.00;;;;;29.62;64.83;98536.78;6158749;23;8808;-79
2021/09/23 07:39:52;;;;;;;;;0.00;0.00;;;;;29.71;65.08;98530.88;6158353;23;8866;-78
2021/09/23 07:42:21;;;;;;;;;0.00;0.00;;;;;29.72;65.01;98513.41;6158671;23;8828;-78
2021/09/23 07:44:50;;;;;;;;;0.60;0.60;;;;;29.84;65.15;98516.41;6158378;23;8840;-78
2021/09/23 07:47:19;;;;;;;;;0.00;0.00;;;;;29.88;65.05;98521.81;6158878;23;8835;-78
2021/09/23 07:49:48;;;;;;;;;0.00;0.00;;;;;29.89;65.47;98517.16;6157764;23;8891;-78
2021/09/23 07:52:16;;;;;;;;;0.00;0.00;;;;;29.92;65.13;98513.59;6156711;23;8816;-78
2021/09/23 07:54:47;;;;;;;;;0.00;0.00;;;;;29.92;64.98;98502.72;6157036;23;8816;-78
2021/09/23 07:57:16;;;;;;;;;0.00;0.00;;;;;29.91;65.10;98504.69;6157317;23;8834;-78
2021/09/23 07:59:44;;;;;;;;;0.00;0.00;;;;;29.90;65.27;98505.88;6158857;23;8855;-79
2021/09/23 08:02:13;;;;;;;;;0.40;0.40;;;;;29.96;65.22;98508.91;6157786;23;8808;-78
2021/09/23 08:04:42;;;;;;;;;0.00;0.00;;;;;29.95;65.28;98508.13;6157591;23;8820;-78
2021/09/23 08:07:14;;;;;;;;;0.00;0.00;;;;;30.01;64.65;98506.56;6158584;23;8800;-78
2021/09/23 08:09:43;;;;;;;;;0.00;0.00;;;;;30.10;64.57;98512.31;6159290;23;8811;-78
2021/09/23 08:12:12;;;;;;;;;0.00;0.00;;;;;30.18;64.25;98515.75;6160723;23;8812;-78
2021/09/23 08:14:41;;;;;;;;;0.00;0.00;;;;;30.27;63.79;98504.38;6162800;23;8878;-79
2021/09/23 08:17:10;;;;;;;;;0.00;0.00;;;;;30.30;63.34;98501.63;6163985;23;8812;-78
2021/09/23 08:19:39;;;;;;;;;0.00;0.00;;;;;30.38;62.80;98500.38;6164051;23;8816;-78
2021/09/23 08:22:08;;;;;;;;;0.00;0.00;;;;;30.45;63.90;98500.31;6163279;23;8847;-78
2021/09/23 08:24:37;;;;;;;;;0.00;0.00;;;;;30.59;63.68;98493.97;6163485;23;8855;-78
2021/09/23 08:27:05;;;;;;;;;0.00;0.00;;;;;30.73;63.58;98496.53;6163364;23;8812;-78
2021/09/23 08:29:34;;;;;;;;;0.00;0.00;;;;;30.92;62.74;98499.81;6162543;23;8816;-79
2021/09/23 08:32:04;;;;;;;;;0.00;0.00;;;;;31.06;61.26;98505.84;6165314;23;8897;-78
2021/09/23 08:34:33;;;;;;;;;0.00;0.00;;;;;31.13;61.80;98494.06;6165301;23;8906;-79
2021/09/23 08:37:01;;;;;;;;;0.00;0.00;;;;;31.24;61.55;98499.38;6165673;23;8832;-79
2021/09/23 08:39:30;;;;;;;;;0.00;0.00;;;;;31.30;61.46;98508.63;6164830;23;8820;-78
2021/09/23 08:41:58;;;;;;;;;0.00;0.00;;;;;31.36;61.31;98515.94;6164437;23;8796;-79
2021/09/23 08:44:28;;;;;;;;;0.20;0.20;;;;;31.38;61.96;98516.31;6163277;23;8800;-78
2021/09/23 08:46:57;;;;;;;;;0.00;0.00;;;;;31.37;60.44;98516.72;6161408;23;8823;-78
2021/09/23 08:49:34;;;;;;;;;0.00;0.00;;;;;31.36;59.87;98517.91;6160738;23;8824;-78
2021/09/23 08:52:03;;;;;;;;;0.00;0.00;;;;;31.37;60.77;98525.66;6162507;23;8931;-78
2021/09/23 08:54:31;;;;;;;;;0.00;0.00;;;;;31.39;60.49;98530.72;6161574;23;8843;-78
2021/09/23 08:57:01;;;;;;;;;0.00;0.00;;;;;31.35;60.42;98522.56;6162088;23;8824;-78
2021/09/23 08:59:30;;;;;;;;;0.20;0.20;;;;;31.44;61.18;98530.25;6161630;23;8828;-78
2021/09/23 09:02:20;;;;;;;;;0.00;0.00;;;;;31.43;60.24;98540.38;6160552;23;8812;-78
2021/09/23 09:04:55;;;;;;;;;0.00;0.00;;;;;31.42;61.05;98547.00;6160809;23;8812;-78
2021/09/23 09:07:26;;;;;;;;;0.00;0.00;;;;;31.42;60.70;98543.50;6160284;23;8812;-78
2021/09/23 09:10:11;;;;;;;;;0.00;0.00;;;;;31.40;61.38;98551.31;6161050;23;8823;-78
2021/09/23 09:12:41;;;;;;;;;0.00;0.00;;;;;31.34;61.76;98553.75;6162061;23;8812;-78
2021/09/23 09:15:10;;;;;;;;;0.00;0.00;;;;;31.30;62.09;98561.19;6162961;23;9696;-79
2021/09/23 09:17:38;;;;;;;;;0.00;0.00;;;;;31.23;60.64;98572.19;6164367;23;8851;-78
2021/09/23 09:20:08;;;;;;;;;0.00;0.00;;;;;31.20;62.41;98569.53;6162473;23;8850;-79
2021/09/23 09:22:37;;;;;;;;;0.00;0.00;;;;;31.10;61.98;98557.56;6161858;23;8804;-78
2021/09/23 09:25:12;;;;;;;;;0.00;0.00;;;;;31.04;62.64;98561.91;6160271;23;8804;-79
2021/09/23 09:27:49;;;;;;;;;0.00;0.00;;;;;30.99;61.40;98554.19;6154741;23;8935;-78
2021/09/23 09:30:22;;;;;;;;;0.00;0.00;;;;;30.91;62.59;98561.69;6154567;23;9526;-78
2021/09/23 09:32:57;;;;;;;;;0.00;0.00;;;;;30.85;62.24;98562.53;6154077;23;8839;-78
2021/09/23 09:35:34;;;;;;;;;0.00;0.00;;;;;30.78;61.89;98557.94;6154224;23;8823;-78
2021/09/23 09:38:05;;;;;;;;;0.00;0.00;;;;;30.76;62.45;98573.91;6154501;23;8805;-78
2021/09/23 09:40:37;;;;;;;;;0.00;0.00;;;;;30.71;62.76;98568.91;6152827;23;8816;-78
2021/09/23 09:43:09;;;;;;;;;0.00;0.00;;;;;30.66;63.00;98572.84;6154180;23;8816;-78
2021/09/23 09:45:39;;;;;;;;;0.00;0.00;;;;;30.60;63.17;98565.53;6154363;23;8827;-78
2021/09/23 09:48:09;;;;;;;;;0.60;0.60;;;;;30.54;63.06;98576.03;6154348;23;8831;-78
2021/09/23 09:50:42;;;;;;;;;0.00;0.00;;;;;30.51;63.27;98576.84;6154392;23;8827;-78
2021/09/23 09:53:13;;;;;;;;;0.00;0.00;;;;;30.39;62.93;98586.28;6154331;23;8847;-77
2021/09/23 09:55:45;;;;;;;;;0.00;0.00;;;;;30.22;62.95;98584.50;6152985;23;8824;-78
2021/09/23 09:58:15;;;;;;;;;0.00;0.00;;;;;30.08;63.33;98587.34;6154478;23;8903;-78
2021/09/23 10:00:44;;;;;;;;;0.00;0.00;;;;;29.88;63.40;98589.03;6154496;23;8905;-78
2021/09/23 10:03:13;;;;;;;;;0.00;0.00;;;;;29.70;63.56;98581.00;6154598;23;9573;-78
2021/09/23 10:05:43;;;;;;;;;0.00;0.00;;;;;29.52;63.44;98579.16;6155766;23;8832;-77
2021/09/23 10:08:14;;;;;;;;;0.00;0.00;;;;;29.37;63.88;98577.66;6159937;23;8862;-78
2021/09/23 10:10:43;;;;;;;;;0.00;0.00;;;;;29.19;64.10;98585.88;6154803;23;8835;-77
2021/09/23 10:13:14;;;;;;;;;0.00;0.00;;;;;28.93;64.38;98589.06;6154336;23;8832;-78
2021/09/23 10:15:44;;;;;;;;;0.00;0.00;;;;;28.84;64.68;98605.00;6155519;23;8808;-77
2021/09/23 10:18:13;;;;;;;;;0.00;0.00;;;;;28.74;65.28;98609.25;6156649;23;8843;-78
2021/09/23 10:20:42;;;;;;;;;0.00;0.00;;;;;28.69;64.95;98604.22;6156446;23;8835;-78
2021/09/23 10:23:12;;;;;;;;;0.00;0.00;;;;;28.57;64.89;98600.00;6156544;23;8820;-77
2021/09/23 10:25:41;;;;;;;;;0.00;0.00;;;;;28.50;65.03;98591.88;6156584;23;9580;-77
2021/09/23 10:28:10;;;;;;;;;0.00;0.00;;;;;28.42;65.50;98594.97;6156339;23;8800;-78
2021/09/23 10:30:42;;;;;;;;;0.00;0.00;;;;;28.35;65.81;98595.75;6156285;23;8820;-77
2021/09/23 10:33:10;;;;;;;;;0.00;0.00;;;;;28.38;66.38;98600.41;6156624;23;9609;-77
2021/09/23 10:35:40;;;;;;;;;0.00;0.00;;;;;28.38;66.48;98594.22;6156160;23;8831;-77
2021/09/23 10:38:11;;;;;;;;;0.00;0.00;;;;;28.36;66.59;98593.81;6156191;23;8890;-77
2021/09/23 10:40:41;;;;;;;;;0.00;0.00;;;;;28.31;67.04;98597.69;6156206;23;8890;-77
2021/09/23 10:43:14;;;;;;;;;0.00;0.00;;;;;28.31;67.46;98592.28;6156404;23;8800;-77
2021/09/23 10:45:43;;;;;;;;;0.00;0.00;;;;;28.28;67.78;98598.47;6156137;23;8820;-78
2021/09/23 10:48:12;;;;;;;;;0.00;0.00;;;;;28.25;67.72;98594.59;6156226;23;8911;-77
2021/09/23 10:50:42;;;;;;;;;0.00;0.00;;;;;28.25;67.67;98604.69;6156088;23;9705;-77
2021/09/23 10:53:12;;;;;;;;;0.00;0.00;;;;;28.25;67.98;98607.41;6155969;23;8822;-77
2021/09/23 10:55:42;;;;;;;;;0.00;0.00;;;;;28.26;67.70;98603.53;6155989;23;8888;-78
2021/09/23 10:58:16;;;;;;;;;0.00;0.00;;;;;28.27;68.54;98607.78;6156245;23;8820;-78
2021/09/23 11:00:45;;;;;;;;;0.00;0.00;;;;;28.30;67.90;98612.44;6156277;23;8820;-77
2021/09/23 11:03:14;;;;;;;;;0.00;0.00;;;;;28.30;67.98;98615.13;6155978;23;8850;-77
2021/09/23 11:05:43;;;;;;;;;0.00;0.00;;;;;28.32;67.38;98618.25;6155930;23;8820;-78
2021/09/23 11:08:15;;;;;;;;;0.00;0.00;;;;;28.28;67.71;98606.63;6155848;23;8823;-78
2021/09/23 11:10:45;;;;;;;;;0.00;0.00;;;;;28.37;67.53;98622.50;6155901;23;8828;-78
2021/09/23 11:13:17;;;;;;;;;0.00;0.00;;;;;28.38;68.14;98632.97;6155910;23;8820;-77
2021/09/23 11:15:47;;;;;;;;;0.00;0.00;;;;;28.37;68.02;98642.28;6155903;23;9545;-77
2021/09/23 11:18:18;;;;;;;;;0.00;0.00;;;;;28.36;68.05;98642.66;6156127;23;8816;-78
2021/09/23 11:20:48;;;;;;;;;1.00;1.00;;;;;28.34;68.08;98651.19;6155864;23;8820;-78
2021/09/23 11:23:19;;;;;;;;;0.00;0.00;;;;;28.31;68.13;98660.09;6156028;23;8824;-77
2021/09/23 11:25:50;;;;;;;;;0.00;0.00;;;;;28.31;68.52;98654.66;6155813;23;8800;-77
2021/09/23 11:28:20;;;;;;;;;0.00;0.00;;;;;28.30;68.59;98663.97;6155861;23;8816;-77
2021/09/23 11:30:52;;;;;;;;;0.00;0.00;;;;;28.32;67.93;98666.28;6155791;23;8886;-77
2021/09/23 11:33:22;;;;;;;;;0.00;0.00;;;;;28.34;68.23;98669.41;6155816;23;8812;-78
2021/09/23 11:35:54;;;;;;;;;0.60;0.60;;;;;28.33;68.30;98676.75;6155911;23;8809;-77
2021/09/23 11:38:25;;;;;;;;;0.00;0.00;;;;;28.33;68.51;98670.56;6155654;23;9640;-77
2021/09/23 11:40:57;;;;;;;;;0.00;0.00;;;;;28.31;68.59;98670.16;6155943;23;8805;-78
2021/09/23 11:43:29;;;;;;;;;0.00;0.00;;;;;28.31;68.89;98675.59;6155479;23;8816;-77
2021/09/23 11:45:59;;;;;;;;;0.00;0.00;;;;;28.30;68.31;98677.53;6155751;23;8808;-77
2021/09/23 11:48:35;;;;;;;;;0.00;0.00;;;;;28.25;68.12;98675.19;6155645;23;8830;-78
2021/09/23 11:51:09;;;;;;;;;0.00;0.00;;;;;28.32;67.75;98683.34;6155545;23;8834;-77
2021/09/23 11:53:38;;;;;;;;;0.00;0.00;;;;;28.29;67.97;98683.34;6155608;23;8820;-78
2021/09/23 11:56:16;;;;;;;;;0.00;0.00;;;;;28.34;67.91;98691.09;6155877;23;8851;-78